SMRA10 UAOL 120000
AAXX 12001
10015 05982 00504 10199 20178 30226 40230 58001 60001 333 55/// 22509 30342 55300 20000 30000 60007 91005 90760 91107 90760 91206=
10020 05981 00405 10181 20163 30204 40236 54000 60001 333 55/// 22369 30339 55300 20000 30000 60007 91005 90760 91106 90760 91205=
10035 07981 00202 10144 20127 30180 40238 51002 60001 333 55/// 22491 30278 42918 55300 20000 30000 41167 60007 91002 90760 91104 90760 91203=
10044 46/// /1103 10205 20161 30203 40234 50000 222// 00203 333 55300 91005 90760 91106 90760 91206=
10046 05989 01002 10177 20134 30197 40232 50000 60001 333 60007 91002 90760 91104 90760 91203=
10055 05982 01103 10164 20152 30226 40236 50000 60001 333 55/// 22606 30327 55300 20000 30000 60007 91003 90760 91105 90760 91204=
10091 05985 00702 10182 20157 30193 40243 54000 60001 222// 00216 333 55/// 22484 30244 42873 55300 20000 30000 41186 60007 91003 90760 91105 90760 91203=
10113 05981 00605 10203 20173 30206 40225 58002 60001 333 55/// 22549 30257 55300 20000 30000 60007 91006 90760 91107 90760 91206=
10124 46/// /0906 10215 20148 30187 40224 50000 333 55300=
10131 07984 01003 10205 20147 30214 40228 50000 60001 333 55/// 22503 30373 55300 20000 30000 60007 91005 90760 91106 90760 91205=
10147 05984 00501 10168 20133 30211 40229 51002 60001 333 55/// 22474 30279 42985 55300 20000 30000 41190 60007 91002 90760 91106 90760 91205=
10162 05986 01002 10185 20115 30161 40231 51001 60001 333 55/// 22520 30326 55300 20000 30000 60007 91004 90760 91105 90760 91203=
10170 05983 01301 10171 20139 30220 40235 58001 60001 333 55/// 22465 30266 42902 55300 20000 30000 41156 60007 91002 90760 91105 90760 91204=
10184 05981 00000 10144 20141 30230 40238 57001 60001 333 55/// 22472 30336 55300 20000 30000 60007 91001 90760 91105 90760 91204=
10200 07982 00302 10159 20144 30222 40220 58004 60001 333 55/// 22492 30369 55300 20000 30000 60007 91002 90760 91105 90760 91203=
10224 05986 00703 10182 20118 30212 40218 50001 60001 333 55/// 22467 55300 20000 60007 91004 90760 91106 90760 91205=
10264 05983 00201 10147 20107 30127 40234 51001 60001 333 55/// 22456 30387 55300 20000 30000 60007 91001 90760 91108 90760 91204=
10291 05983 00101 10151 20109 30165 40231 51001 60001 333 55/// 22476 30477 55300 20000 30000 60007 91002 90760 91107 90760 91205=
10315 02984 00302 10185 20117 30143 40205 58001 60001 333 30/// 55/// 22497 30402 55300 20000 30000 60007 91002 90760 91104 90760 91203=
10338 05985 00502 10187 20099 30143 40214 50002 60001 333 55/// 22531 30368 55300 20000 30000 60007 91003 90760 91106 90760 91205=
10361 05985 00101 10178 20084 30116 40217 52001 60001 333 55/// 22441 30513 55300 20000 30000 60007 91002 90760 91105 90760 91203=
10379 05985 00904 10179 20093 30107 40225 51005 60001 333 55/// 22460 30419 42997 55300 20000 30000 41203 60007 91005 90760 91106 90760 91205=
10384 06/// /0903 10195 20104 30167 40224 51004 60001 333 55/// 22396 30489 55300 20000 30000 60007 91004 90760 91106 90760 91205=
10393 05986 01104 10204 20079 30104 40226 52005 60001 333 55/// 22512 30338 55300 20000 30000 60007 91006 90760 91106 90760 91204=
10400 05989 00503 10209 20097 30145 40193 58002 60001 333 55/// 22506 30433 55300 20000 30000 60007 91003 90760 91107 90760 91205=
10427 05987 01005 10183 20059 39240 48568 58003 60001 333 55/// 22574 30443 55300 20000 30000 60007 91007 90760 91108 90760 91205=
10430 05987 01203 10192 20088 30020 40206 58001 60001 333 55/// 22491 30403 55300 20000 30000 60007 91003 90760 91106 90760 91204=
10439 46/77 /3002 10163 20085 39994 40209=
10453 05986 01408 10158 20031 38934 48572 58002 60001 333 55300 60007 91010 90760 91111 90760 91209=
10469 02986 01103 10172 20077 30055 40216 51003 60001 333 30/// 55/// 22510 30434 42979 55300 20000 30000 41186 60007 91003 90760 91105 90760 91204=
10488 05987 01702 10176 20077 39946 40219 51002 60001 333 55/// 22396 42940 55300 20000 41172 60007 91002 90760 91107 90760 91205=
10496 05989 00801 10158 20089 30142 40225 51005 60001 333 55/// 22492 30438 55300 20000 30000 60007 91002 90760 91105 90760 91203=
10499 05986 03501 10149 20087 39940 40225 50001 60001 333 55/// 22501 30472 42874 55300 20000 30000 41157 60007 91001 90760 91104 90760 91203=
10505 05983 01202 10191 20091 39922 40193 57001 60001 333 55/// 22604 30428 55300 20000 30000 60007 91003 90760 91105 90760 91203=
10513 05985 00801 10210 20088 30079 40195 52002 60001 333 55/// 22489 30490 55300 20000 30000 60007 91002 90760 91105 90760 91204=
10532 05983 00302 10183 20077 39958 40198 50002 60001 333 55/// 22396 30524 55300 20000 30000 60007 91002 90760 91108 90760 91205=
10544 05984 01309 10157 20049 39165 48560 58002 60001 333 55300 60007 91010 90760 91111 90760 91209=
10548 05984 01001 10187 20064 39687 40208 50001 60001 333 55/// 22271 30564 55300 20000 30000 60007 91001 90760 91108 90760 91205=
10554 06/// /0701 10191 20064 39835 40209 54000 60001 333 55/// 22474 30473 55300 20000 30000 60007 91003 90760 91106 90760 91204=
10567 05985 01502 10169 20067 39852 40215 50002 60001 333 55/// 22338 30454 55300 20000 30000 60007 91003 90760 91106 90760 91205=
10578 05986 01108 10121 20052 38861 48562 58004 60001 333 55/// 22523 30628 55300 20000 30000 60007 91010 90760 91110 90760 91209=
10609 05984 00303 10188 20075 39868 40186 58002 60001 333 55/// 22628 30367 55300 20000 30000 60007 91004 90760 91108 90760 91204=
10616 059// 00905 10206 20064 39614 40188 58003 60001 333 55300 60007 91007 90760 91109 90760 91206=
10637 02986 10403 10224 20071 30067 40188 50002 60001 80001 333 30/// 55/// 22547 30442 43055 55300 20000 30000 41248 60007 81080 91004 90760 91106 90760 91204=
10641 05983 00101 10193 20083 30049 40191 50002 60001 333 55300 60007 91002 90760 91106 90760 91204=
10655 05989 01003 10202 20074 39887 40203 51008 60001 333 55/// 22495 30389 55300 20000 30000 60007 91004 90760 91109 90760 91207=
10675 07985 00601 10137 20101 39922 40209 50003 60001 333 55/// 22460 30417 55300 20000 30000 60007 91001 90760 91104 90760 91202=
10685 05969 00401 10150 20059 39559 40216 58002 60001 333 55/// 22469 30527 55300 20000 30000 60007 91002 90760 91108 90760 91205=
10688 05985 00803 10174 20065 39702 40208 58001 60001 333 55/// 22435 30566 55300 20000 30000 60007 91004 90760 91108 90760 91204=
10708 05970 00404 10206 20062 39810 40179 57003 60001 333 55/// 22655 30354 55300 20000 30000 60007 91006 90760 91108 90760 91205=
10729 07985 00202 10204 20071 30066 40182 55000 60001 333 55/// 22516 30418 42992 55300 20000 30000 41217 60007 91002 90760 91105 90760 91203=
10731 05982 10202 10163 20076 30038 40178 58001 60001 333 55/// 22506 30456 55300 20000 30000 60007 81/71 91003 90760 91108 90760 91205=
10738 06/// /0701 10162 20076 39731 40187 50001 60001 333 55300 60007 91002 90760 91103 90760 91202=
10742 05987 00902 10197 20056 39871 40190 51005 60001 333 55/// 22606 30491 55300 20000 30000 60007 91004 90760 91106 90760 91204=
10763 05987 00701 10154 20086 39831 40204 50001 60001 333 55/// 22696 30387 55300 20000 30000 60007 91002 90760 91106 90760 91205=
10776 05987 03602 10155 20077 39770 40204 50000 60001 333 55/// 22526 30473 55300 20000 30000 60007 91003 90760 91106 90760 91203=
10788 05887 50000 10144 20086 39779 40202 58001 60001 333 55/// 22429 30640 55300 20000 30000 60007 85/57 91000 90760 91108 90760 91206=
10791 05987 00604 10103 20053 38608 48551 58002 60001 333 55300 60007 91008 90760 91108 90760 91205=
10805 05989 60601 10155 20090 39986 40172 50000 60001 333 55/// 22544 30366 55300 20000 30000 60007 86/71 91001 90760 91106 90760 91204=
10815 07987 00802 10165 20046 39278 48540 58002 60001 333 55/// 22683 30396 55300 20000 30000 60007 91003 90760 91107 90760 91204=
10836 05986 01005 10166 20073 39354 40189 58004 60001 333 55/// 22623 30446 55300 20000 30000 60007 91008 90760 91110 90760 91206=
10852 07986 00503 10144 20079 39643 40195 58004 60001 333 55/// 22546 30463 55300 20000 30000 60007 91004 90760 91107 90760 91204=
10870 05986 00302 10131 20089 39675 40199 57004 60001 333 55300 60007 91003 90760 91105 90760 91204=
10895 05984 80503 10170 20092 39642 40197 58001 60001 333 55/// 22567 30534 55300 20000 30000 60007 88/58 91005 90760 91107 90760 91206=
10908 05985 41012 10138 20053 38543 48538 58008 60001 333 55/// 22642 30371 55300 20000 30000 60007 84/68 91015 90760 91115 90760 91213=
10929 05989 00604 10198 20094 39680 40172 50000 60001 333 55/// 22605 30364 42641 55300 20000 30000 41079 60007 91005 90760 91107 90760 91204=
10946 07985 00101 10133 20094 39380 40188 58003 60001 333 55/// 22556 30500 55300 20000 30000 60007 91002 90760 91103 90760 91202=
10948 05777 11701 10115 20105 39267 48524 50000 60001 333 55/// 22505 30540 55300 20000 30000 60007 81/50 91002 90760 91104 90760 91203=
10961 47276 23104 10030 20006 37157 47140 58012 72031 333 55/// 22210 30879 42227 55300 20000 30000 40818 82/04 91008 90760 91110 90760 91206=
10962 05986 00704 10154 20068 39076 48538 58006 60001 333 55/// 22603 30515 42682 55300 20000 30000 41063 60007 91007 90760 91110 90760 91207=
11001 15/// /0704 10169 20077 39484 40190 58003 60001=
11008 15/// /0403 10157 20083 39495 40203 58001 60001=
11010 25984 10001 10163 20096 39831 40197 55001 333 55121 60005 81/60=
11012 15/// /0301 10151 20096 39743 40200 58002 60001=
11018 15/// /0201 10121 20096 39889 40204 50000 60001=
11019 15/// /0301 10134 20085 39509 40215 50000 60001=
11020 15/// /1901 10085 20082 39624 40226 50001 60001=
11021 15/// /0000 10149 20093 39565 40211 58001 60001=
11022 15/// /0204 10177 20086 39826 40199 50000 60001=
11024 15/// /0605 10129 20073 39116 48545 58005 60001=
11025 15/// /2102 10122 20088 39549 40216 50001 60001=
11027 15/// /0302 10167 20094 39960 40202 50004 60001=
11030 22/80 42501 10142 20093 39991 40201 50004 82041 333 60005 82362 84080=
11032 15/// /3101 10171 20094 39958 40201 58001 60001=
11034 15/// /0302 10201 20090 39988 40196 50003 60001=
11035 42/82 30303 10186 20091 39952 40196 50003 83030 333 83360=
11036 25887 60003 10170 20096 39981 40196 50003 333 55092 60005 81857 85363=
11037 15/// /3202 10168 20103 30018 40199 51006 60001=
11040 15/// /3603 10183 20088 39959 40193 50003 60001=
11051 15/// /0503 10181 20086 39730 40186 58002 69901=
11053 15/// /2401 10136 20093 39695 40199 58002 60001=
11055 15/// /3402 10171 20120 39830 40196 58001 60001=
11059 15/// /1401 10148 20107 39830 40195 58002 60001=
11060 15/// /2901 10176 20097 39888 40195 58001 60001=
11070 15/// /2701 10146 20094 39965 40208 50005 60001=
11075 15/// /0000 10159 20099 39958 40207 50003 60001=
11078 15/// /0102 10142 20073 39403 40204 50002 69901=
11080 15/// /3601 10134 20102 39933 40204 50003 60001=
11082 15/// /3403 10192 20089 39947 40206 50002 60001=
11083 15/// /0106 10134 20088 39669 40206 50000 60001=
11085 15/// /0203 10169 20093 30023 40196 50003 69901=
11090 15/// /3601 10178 20095 30004 40194 50004 60001=
11101 15/// /0601 10181 20117 39664 40167 50002 60001=
11105 15/// /0701 10181 20135 39665 40167 50002 60001=
11110 15/// /2802 10098 20093 37963 48543 58005 60001=
11112 15/// /0000 10161 20115 39266 40181 50004 60001=
11119 15/// /0000 10100 20084 38869 48536 58004 60001=
11120 25782 40001 10164 20122 39499 40178 54000 333 55113 60005 83/56=
11121 15/// /0000 10163 20124 39511 40183 50001 60001=
11126 15/// /0103 10077 20063 37804 48541 58008 60001=
11127 15/// /0000 10103 20078 38108 48544 58004 60001=
11130 15/// /0302 10163 20105 39615 40184 58004 60001=
11136 15/// /0301 10131 20104 39052 48538 58002 60001=
11138 15/// /0101 10071 20060 37741 47141 58011 60001=
11140 15/// /0801 10124 20105 39474 40197 58002 60001=
11141 15/// /0000 10158 20126 39555 40187 50001 69901=
11144 15/// /3101 10140 20128 39326 40191 58003 69901=
11148 15/// /2501 10133 20110 39005 48536 50000 60001=
11149 15/// /3101 10098 20073 38296 48543 58007 60001=
11150 25984 10002 10143 20097 39671 40190 58002 333 55134 60005 81/71=
11152 15/// /0807 10187 20095 39603 40182 58007 60001=
11153 15/// /3402 10152 20092 39630 40190 58001 60001=
11155 15/// /0904 10101 20043 38421 48543 58006 60001=
11157 22780 60901 10160 20086 39445 40190 58001 868// 333 60005 81850 86657=
11161 15/// /0501 10123 20066 38844 48546 58003 60001=
11165 22770 80703 10186 20075 39416 40191 57007 885// 333 60005 81656 87656=
11170 15/// /0901 10089 20081 39498 40220 58003 60001=
11171 15/// /1402 10098 20076 39220 40220 58004 69901=
11173 15/// /3602 10139 20070 39030 48544 58005 60001=
11175 15/// /1001 10172 20090 60001=
11176 15/// /0503 10154 20094 39601 40197 50000 60001=
11180 15/// /0504 10100 20052 38492 48550 58005 60001=
11182 15/// /3502 10166 20095 39869 40198 50002 60001=
11185 15/// /3302 10142 20058 39081 48545 58003 60001=
11190 15/// /3504 10188 20090 39973 40186 50002 60001=
11192 15/// /0000 10156 20092 39875 40190 58002 60001=
11193 15/// /3603 10177 20080 60001=
11201 15/// /0000 10142 20105 38966 48533 58002 60001=
11204 15/// /2201 10154 20126 39413 40177 50001 60001=
11213 15/// /0902 10213 20083 39610 40173 50002 60001=
11214 15/// /0403 10150 20070 39029 48543 58005 69901=
11220 17/// /0000 10129 20121 39210 40204 52007 60091 7//4/=
11221 15/// /0401 10184 20106 60001=
11225 15/// /2701 10159 20109 39374 40186 52001 60001=
11227 15/// /1301 10204 20079 39549 40169 50001 60001=
11229 17/// /3602 10168 20142 39719 40188 52008 69981 7804/=
11231 25887 80003 10208 20091 39632 40174 50002 333 55124 60005 87/57=
11232 17/// /1503 10183 20093 39574 40182 50001 69911 7//8/=
11234 15/// /0000 10191 20073 39476 40179 50001 60001=
11240 25884 80003 10201 20085 39763 40181 58003 333 55108 60005 81/57 85/58=
11241 15/// /0203 10113 20054 38607 48544 58005 60001=
11242 15/// /3602 10175 20079 39363 40190 58004 60001=
11244 15/// /0201 10204 20082 39868 40182 58002 60001=
11252 15/// /3301 10141 20090 38853 48536 58001 60001=
11255 15/// /0000 10158 20121 39366 40176 50001 60001=
11260 15/// /2801 10121 20084 38848 48536 58001 60001=
11263 15/// /0901 10170 20093 39105 48539 58002 60001=
11265 15/// /3001 10065 20049 37893 48547 58008 69901=
11270 15/// /0501 10167 20128 39458 40174 52001 60001=
11272 15/// /2601 10157 20132 39554 40181 50003 60001=
11275 15/// /0603 10175 20078 39178 40178 50000 60001=
11278 15/// /0502 10211 20078 39656 40174 50001 60001=
11280 17/// /1902 10141 20118 39271 40199 53007 60051 780//=
11285 15/// /2601 10192 20105 39775 40185 58003 60001=
11290 15/// /0302 10201 20092 39746 40181 58003 60001=
11292 15/// /0402 10180 20082 39576 40183 58003 60001=
11296 15/// /0000 10195 20113 39871 40179 58003 69901=
11298 15/// /0000 10193 20084 39810 40181 58002 60001=
11301 15/// /1101 10163 20101 39359 40172 58001 60001=
11302 15/// /0301 10186 20116 39693 40162 50000 60001=
11304 15/// /2002 10149 20114 39021 48534 58004 60001=
11308 15/// /0901 10109 20089 38571 48540 58004 69901=
11310 15/// /3401 10089 20056 37751 47149 58006 60001=
11312 15/// /0000 10096 20074 38468 48546 50000 60001=
11314 15/// /3301 10112 20105 39232 40201 58001 60001=
11316 15/// /2601 10053 20025 37264 47150 58011 60001=
11318 45/// /3004 10004 21002 36760 47148 58013=
11330 15/// /0000 10153 20127 39452 40188 58001 69901=
11331 15/// /0802 10208 20090 39659 40175 50002 60001=
11332 15/// /0301 10168 20091 39977 40201 50002 60001=
11337 15/// /0403 10108 20047 38416 48539 58010 60001=
11340 15/// /3302 10088 20056 38089 48540 58008 60001=
11343 45/// /2702 10014 21005 37021 47138 58011=
11345 15/// /1501 10159 20121 39334 40187 58002 60001=
11346 15/// /0201 10145 20121 39122 48536 58005 60001=
11348 15/// /3401 10125 20093 38905 48542 58002 69901=
11349 15/// /3001 10112 20070 38404 48542 58006 60001=
11350 15/// /1401 10139 20106 39699 40189 58001 60001=
11351 15/// /3301 10126 20076 38843 48541 58004 60001=
11355 15/// /0401 10137 20091 39503 40196 57001 60001=
11356 15/// /0000 10148 20096 39340 40188 58002 60001=
11357 15/// /0000 10154 20096 39563 40191 50000 60001=
11358 15/// /2901 10143 20091 39277 40192 58002 60001=
11359 15/// /0000 10168 20075 39313 40187 58002 69901=
11362 15/// /2501 10154 20100 39345 40197 58001 60001=
11365 15/// /0802 10184 20072 39415 40186 58001 69901=
11367 15/// /0802 10126 20073 39108 48548 58002 60001=
11375 15/// /3501 10139 20075 39316 40204 50000 60001=
11378 15/// /2301 10139 20079 39387 40204 58002 69901=
11380 15/// /0101 10141 20102 39634 40204 58002 60001=
11382 15/// /0000 10140 20097 39525 40205 57004 60001=
11383 15/// /0501 10137 20066 39080 48544 58004 60001=
11384 15/// /0603 10113 20061 38732 48545 58005 60001=
11385 15/// /3202 10135 20076 39138 48543 58005 60001=
11386 15/// /3002 10149 20072 39571 40200 50001 60001=
11387 15/// /2201 10144 20095 39977 40198 50002 60001=
11389 15/// /0901 10144 20111 39884 40202 50003 60001=
11390 15/// /3503 10208 20077 39796 40184 58003 60001=
11393 15/// /2401 10179 20099 39954 40189 50002 60001=
11395 15/// /0302 10171 20104 30049 40190 50001 60001=
11406 07/81 /3301 10137 20075 39647 40221 57001 60001 333 55135 60005=
11414 02982 00101 10146 20059 39517 42849 58001 60001 333 55133 60005=
11423 07/81 /0803 10149 20059 39355 42844 58003 60001 70011 333 55135 60005=
11438 05/81 /2902 10132 20076 39836 40224 50002 60001 333 55130 60005=
11450 05/81 /3603 10142 20071 39777 40215 50000 60001 333 55136 60005=
11457 05781 /0501 10118 20059 38949 48556 58002 60001 333 55108 60005 81/50=
11464 12988 01108 10141 20085 39259 42851 58001 60001 333 55122 90760 91111=
11487 05/81 /0703 10141 20076 39605 40215 50000 60001 333 55115 60005=
11502 07/81 /0702 10173 20074 39778 40220 50002 60001 333 55131 60005=
11509 07/81 /0000 10145 20074 30028 40220 50004 60001 333 55121 60005=
11518 02988 00901 10150 20085 39789 40218 50001 60001 333 55130 60005=
11520 07/67 /0401 10158 20088 39858 40216 50001 60001 333 55118 60005=
11538 05981 /0403 10146 20073 39620 40212 50000 60001 333 55111 60005 88/61=
11546 05/81 /2601 10144 20106 39738 40212 50001 60001 333 55112 60005=
11567 02970 00502 10150 20093 39884 40222 51003 60001 333 55120 60005=
11603 07/81 /1301 10108 20065 39752 40231 57002 60001 70010 333 55104 60005=
11624 02/70 21301 10158 20099 39935 40218 50000 60001 82030 333 55107 60005 82360=
11628 05981 /0001 10148 20077 39595 40215 58003 60001 333 55089 60005 87/59=
11636 05881 /0002 10148 20079 39546 42841 58004 60001 333 55086 60005 88/58=
11643 05/81 /2001 10097 20066 39290 42857 57002 60001 333 55087 60005=
11652 02/70 23401 10147 20106 39950 40219 50001 60001 82030 333 55075 60005 82360=
11653 46/// /1208 10076 20054 333 90760 91114=
11659 07/81 /1002 10139 20085 39592 40218 58001 60001 70011 333 55065 60005=
11669 02970 00903 10142 20090 39359 42844 58003 60001 333 55093 60005=
11679 07/81 /0001 10130 20096 39744 40222 58001 69901 333 55090 60005=
11683 05/81 /0905 10130 20074 39364 42844 58003 60001 333 55088 60005 90760 91114=
11692 02/80 13403 10148 20087 39654 40208 58003 60001 81030 333 55094 60005 81360=
11693 05981 /0204 10149 20084 39737 40209 58003 60001 333 55089 60005 81/61=
11698 05981 /0104 10164 20087 39807 40204 58003 60001 333 55093 60005 87/60 87/63=
11710 05981 /0002 10138 20102 39614 40215 58004 60001 333 55092 60005 82/77=
11723 02982 12701 10162 20087 39914 40204 58002 60001 80001 333 55116 60005 81076 91112=
11730 07160 /1009 10090 20084 38732 48553 57005 69911 7//81 333 55078 60005 83/02 90760 91115=
11747 02980 13304 10156 20103 39955 40212 58003 60001 80001 333 55113 60005 81070=
11766 07959 /0306 10118 20110 39347 42841 58004 60001 71086 333 55094 60005 85/64 86/74=
11774 07881 /0205 10147 20113 39940 40206 58005 69901 7//86 333 55112 60005 82/58 84/76 87/71=
11782 01962 30501 10132 20129 39911 40217 58004 60001 71211 83031 333 55102 60005 83362=
11787 07981 /0907 10091 20061 38728 48546 58004 60001 333 55078 60005 81/62 90760 91113=
11801 46/56 /0000 10143 20085 39953 40203 57004 6///1=
11813 16/// /9902 10175 20086 39857 40194 54000 60001 333 55066=
11816 12984 30204 10163 20097 30036 40195 50002 60001 83080 333 55075 83361=
11819 16/// /0303 10161 20100 39989 40199 52003 60001 333 55117=
11826 16/// /3602 10129 20095 30002 40198 52003 60001 333 55066=
11841 12984 11002 10139 20103 39843 40211 58001 60001 81032 333 55110 81362=
11855 16/// /9901 10145 20093 30033 40195 52002 60001 333 55077=
11856 16/// /0603 10160 20090 39883 40192 52001 60001 333 55111=
11858 16/// /9901 10178 20104 30054 40188 52002 60001 333 55046=
11867 16/// /0302 10155 20092 39894 40202 52002 60001 333 55091=
11880 16/// /9901 10138 20100 30027 40195 52001 60001 333 55000=
11903 16969 /0002 10123 20103 39834 40208 50001 60001 333 55000=
11916 46/// /9904 10052 20027 38043 48531 57004 6///1 333 91012=
11918 16/// /0001 10085 20074 39415 42840 54000 60001=
11927 16/// /3302 10117 20089 39940 40198 57004 60001 333 55080=
11930 46/// /9904 10020 20020 37439 47138 57003 6///1 333 55032 91009=
11933 16/// /0603 10105 20063 38725 48544 57005 60001 333 55051 91008=
11934 12684 11302 10084 20072 39411 42839 57004 60001 81540 333 55094 81636=
11938 16/// /0806 10105 20079 39171 42830 57002 60001=
11952 16/// /0001 10106 20085 39403 42841 57003 60001=
11955 46/87 /0504 10141 20097 39841 40204 57005 6///1=
11968 12982 13605 10169 20105 39925 40197 50001 60001 81030 333 55105 81360=
11976 16/// /0002 10124 20108 39951 40211 57005 60001=
11978 16/// /3404 10168 20113 30071 40197 57001 60001 333 55090=
11993 16/// /9902 10127 20099 39988 40201 57004 60001 333 55107=
12001 46/// /1704 10198 20142 30214 40252 51006=
12100 15/70 /1502 10161 20119 30231 40238 50000 60001 333 90760 91108=
12105 15/84 /1403 10173 20095 30199 40240 50000 60001=
12115 15/70 /1604 10162 20094 30230 40244 50001 60001=
12120 12981 01502 10132 20111 30244 40248 58001 60001 333 91203 93000=
12125 15/72 /0901 10111 20100 30199 40248 58002 60001=
12135 15/84 /1103 10150 20137 30247 40251 58003 60001=
12155 15/70 /0000 10152 20134 30238 40249 56001 69901 333 91204 91302 93097=
12160 15/70 /1002 10165 20108 30031 40252 58003 60001 333 91202 91302 93000=
12185 15/74 /3001 10128 20114 30119 40254 54000 60001=
12195 15/80 /0302 10124 20110 30031 40257 54000 60001=
12200 15/84 /1002 10153 20135 30228 40235 50000 60001=
12205 15/80 /0602 10158 20120 30223 40232 54000 69901 333 91202 91302 93097=
12210 15/70 /0901 10107 20088 30174 40239 50000 60001=
12215 16/// /0001 10131 20089 30075 40248 54000 60001=
12230 15/81 /3401 10159 20096 30153 40242 51005 60001=
12235 15/82 /0102 10119 20091 30043 40253 58002 60001=
12250 15/84 /0601 10159 20115 30154 40241 54000 60001 333 91203 91302 93000=
12270 15884 /0403 10180 20096 30066 40243 57001 60001=
12272 15/80 /3501 10135 20119 30087 40253 54000 60001=
12280 15/79 /3102 10157 20137 30096 40251 57001 60001=
12285 15/70 /0001 10155 20109 30129 40243 54000 60001=
12295 15/84 /0301 10157 20128 30060 40243 50001 60001 333 91202 91301 93000=
12300 15/84 /0301 10169 20075 30146 40235 52005 60001=
12310 15/70 /0000 10159 20074 30166 40231 52005 60001=
12330 12983 10501 10148 20098 30129 40236 56001 60001 80001 333 91203 93000=
12360 15/82 /0503 10151 20111 30106 40238 58002 60001=
12375 11781 72502 10193 20137 30101 40228 58003 69901 70181 8453/ 333 91203 93097=
12385 15984 /0301 10172 20141 30045 40231 50000 60001=
12399 15/81 /3401 10178 20158 30064 40228 50000 69901=
12400 15/82 /1502 10181 20094 30003 40232 51002 60001=
12415 15/84 /0601 10135 20112 30078 40229 58003 60001=
12418 15/81 /3601 10133 20101 30121 40234 54000 60001=
12424 12984 13001 10142 20112 30084 40231 56002 60001 81030 333 91206 96122 93000=
12435 15/83 /0601 10150 20119 30064 40232 58003 60001=
12455 17/59 /0000 10132 20123 39990 40233 58002 60001 710//=
12465 11970 60000 10136 20131 30015 40234 58003 60001 71111 8603/ 333 91201 93000=
12469 15/74 /0202 10145 20130 30001 40231 58002 60001=
12488 12882 22801 10148 20128 30075 40228 58002 60001 82500=
12495 15/61 /0201 10134 20123 39940 40229 55002 60001=
12497 17/69 /0202 10161 20150 30013 40228 57001 69901 761//=
12500 17/66 /0501 10099 20093 39825 40241 57002 60001 720//=
12510 12984 11107 10076 20062 38448 48563 55003 60001 80001=
12520 15/84 /3302 10118 20100 39806 40235 50000 60001=
12530 17/56 /0000 10128 20123 30032 40230 58002 69901 720//=
12540 17946 /2901 10114 20112 39977 40227 58002 60001 710//=
12550 15/84 /0201 10152 20110 39876 40228 58003 60001=
12560 17950 /0000 10112 20107 39892 40230 58001 60001 731//=
12566 12984 00000 10123 20107 39937 40229 58002 60001 333 91205 93000=
12570 17/25 /0000 10124 20119 39914 40229 58004 60001 710//=
12575 17/15 /0000 10124 20119 39972 40226 58004 69901 720//=
12580 12965 02702 10114 20111 39961 40224 58001 60001=
12585 15/79 /3403 10138 20127 39960 40223 58004 60001=
12595 17/59 /0000 10131 20123 39958 40226 52002 69901 710//=
12600 17946 /1002 10113 20107 39748 40228 58005 60001 710//=
12625 15/69 /1301 10077 20066 39237 40246 58003 60001=
12650 11484 10904 10050 20027 38054 48548 58005 60001 70241 81500 333 90760 91113=
12660 17/05 /2501 10124 20118 39874 40229 58003 69911 734//=
12670 17/00 /0000 10104 20102 39825 40225 58004 69911 733//=
12690 17/01 /0901 10106 20101 39721 40228 58003 69901 761//=
12695 16/69 /0001 10127 20121 39887 40222 57003 60001=
12756 15/// /0302 10119 20103 30010 40196 57003 60001=
12766 15/// /3002 10147 20099 39832 40198 57001 60001=
12772 15/// /2901 10150 20106 30001 40195 54000 60001=
12786 15/// /3301 10143 20105 30063 40189 54000 60001=
12805 15/// /3102 10171 20095 30052 40193 54000 60001=
12812 15/// /3502 10183 20088 39948 40186 54000 60001=
12815 15/// /0402 10172 20101 30045 40190 54000 60001=
12822 15/// /0201 10144 20096 60001=
12830 15/// /0200 10157 20094 39857 40190 54000 60001=
12836 15/// /3400 10149 20113 30038 40187 52001 60001=
12840 15/// /0302 10199 20092 30012 40188 57003 60001=
12843 15/// /3502 10180 20094 30018 40183 57004 60001=
12846 15/// /0501 10196 20106 30056 40181 57003 60001=
12847 15/// /0502 10182 20110 30055 40187 57001 60001=
12851 15/// /0002 10114 20079 39043 42827 57004 60001=
12860 15/// /0304 10185 20116 30069 40177 57003 60001=
12866 15/// /0303 10177 20106 30074 40182 57001 60001 333 90710 91107=
12882 15/// /0306 10173 20104 30048 40176 54000 60001 333 90710 91108=
12892 15/// /0004 10147 20111 30017 40187 54000 60001 333 90710 91107=
12910 15/// /0000 10158 20097 39820 40188 57001 60001=
12915 15/// /3502 10162 20092 39901 40185 54000 60001=
12920 15/// /0301 10206 20110 60001=
12922 15/// /3201 10152 20112 30034 40178 54000 60001=
12925 15/// /0002 10147 20117 30013 40181 57002 60001=
12930 15/// /2300 10144 20124 30025 40181 57002 60001=
12935 15/// /1002 10214 20114 30055 40182 54000 60001=
12942 15/// /0603 10180 20091 39944 40177 57001 60001=
12950 15/// /0100 10163 20104 30061 40178 57002 60001=
12960 15/// /3601 10169 20103 30038 40171 57004 60001=
12970 15/// /0304 10192 20107 30042 40178 57004 60001 333 90710 91108=
12982 15/// /0104 10190 20120 30072 40170 57003 60001=
12992 15/// /0003 10185 20106 30064 40169 52001 60001 333 90710 91107=
13067 16/// /3603 10185 20125 30050 40170 58004 60001=
13160 12960 43402 10170 20068 30065 40171 58002 60001 80001=
13168 12670 12402 10158 20098 30066 40170 54000 60001 81500=
13173 16/// /0201 10173 20095 30069 40164 58001 60001=
13174 16/// /3401 10163 20100 30070 40167 50000 60001=
13180 12/70 11301 10166 20114 30056 40164 51002 60001 81030=
13183 46/// /2901 10175 20098 30064 40165 58001=
13262 12/70 3//// 10161 20104 30026 40171 58001 60001 83030=
13266 12970 02002 10137 20127 30069 40168 58002 60001=
13269 12/80 32302 10167 20106 39965 40174 50000 60001 81042=
13272 12970 02801 10166 20087 30049 40165 58001 60001=
13274 12/82 12801 10195 20118 30009 40163 50000 60001 81040=
13278 12970 3//// 10157 20102 39953 40171 53002 60001 80001=
13279 12/80 63101 10150 20120 30021 40166 51002 60002 84031=
13285 12970 00000 10148 20131 30060 40160 52006 60001=
13289 12980 01403 10147 20124 39008 48528 58001 60001=
13295 16/// /3001 10177 20144 30120 40170 51005 60001=
13367 12/70 20301 10143 20059 39020 48526 58004 60001 82030=
13369 12975 10000 10104 20082 39014 48527 58001 60001 80001=
13370 12970 23301 10117 20106 39815 40185 51004 60001 80001=
13376 12/84 51801 10162 20098 39919 40174 50001 60001 85030=
13378 12970 00702 10110 20041 38332 48540 50001 60001=
13383 16/// /0000 10148 20105 39971 40169 50001 60001=
13384 12670 50901 10149 20132 30017 40165 51005 60001 85500=
13388 12/70 30801 10188 20153 39922 40160 52005 60001 83030=
13389 12/70 3//// 10154 20148 39888 40161 51003 60001 83030=
13397 12/70 32002 10142 20131 39647 40172 51003 60001 83050=
13461 01970 10503 10266 20118 30120 40127 57005 60001 70211 80002 333 60007=
13462 11760 53602 10237 20115 30095 40134 58002 60061 70298 82532 333 82650 83360=
13463 12670 63202 10258 20100 30078 40136 57006 60001 83830=
13489 16/// /1701 10179 20140 39663 40162 50002 60001=
13586 32980 41002 10206 20134 39879 40157 50005 84030 333 84359=
14006 45/// ///// 10125 29063=
14007 45/20 /2401 10148 20107 39201 48532 5/000 333 553// 20000 59039 90705 91101=
14008 45/// /1403 10040 20033 37554 47131 5/010 333 553// 20000 30000 59031 90705 91105=
14010 45/84 /0401 10182 20098 39590 40173 5/003 333 553// 20000 59036 90705 91102=
14012 45/// ///// 10186 29048=
14014 12884 71005 10209 20089 39731 40170 58002 60001 85830 333 553// 20000 30000 59034 81856 85657 90705 91108=
14015 45887 80501 10220 20085 39830 40172 5/001 88/// 333 553// 20000 30000 59032 90705 91105=
14021 47857 82301 10168 20129 763// 88/// 333 553// 20000 30000 90705 91104=
14023 46/// /2602 10172 20131 39897 40182 5/001 333 553// 20000 59032 90705 91103=
14024 45987 40206 10161 20068 39116 48536 5/008 84/// 333 59030 90705 91109=
14026 45983 /3602 10198 20089 39871 40178 5/004 88/// 333 553// 20000 30000 59032 90705 91103=
14031 45989 50102 10194 20092 39961 40180 5/003 85/// 333 553// 20000 30000 59029 90705 91104=
14105 45984 /1103 10196 20099 30152 40156 5/002 87/// 333 553// 20000 30000 59034 90705 91104=
14106 45989 71201 10227 20108 30096 40161 5/003 87/// 333 553// 20000 30000 59037 90705 91103=
14112 45986 71501 10152 20084 87/// 333 90705 91102=
14118 45/// ///// 10124 29089=
14120 45/83 /3500 10146 20114 39988 40176 5/006 333 553// 20000 59032 90705 91101=
14121 45959 81501 10171 20114 39917 40176 5/005 88/// 333 553// 20000 30000 59034 90705 91103=
14122 45983 /1801 10169 20111 39982 40172 5/004 87/// 333 553// 20000 30000 59035 90705 91103=
14216 46/// /0303 10229 20075 30016 40161 57003=
14219 46/// /1402 10152 20068 39197 57005=
14232 46/// /0000 10142 20132 30037 40170 57006=
14234 46/// /2001 10205 20095 39936 40173 57006=
14235 12/60 30603 10158 20053 39060 48534 57009 60001 83070=
14236 46/// /0000 10212 20101 39985 40174 57005=
14240 12/70 50000 10184 20101 30019 40169 58004 60001 82032=
14241 12/84 62201 10151 20115 30043 40170 58004 60001 81032=
14244 46/// /0000 10155 20153 30046 40173 57004=
14246 46/// /2301 10173 20133 39978 40177 57004=
14248 46/// /0402 10176 20112 39987 40171 57005=
14253 46/// /1601 10172 20126 30005 40173 57005=
14256 12980 60103 10183 20094 39870 40176 58003 60001 80008=
14258 46/// /2101 10130 20123 39988 40184 57005=
14280 12960 22901 10147 20114 30057 40164 54001 60001 80001=
14284 12/70 20403 10170 20107 30064 40169 56001 60001 82030=
14307 12984 20507 10243 20079 30070 40143 58009 60001 80002=
14308 46/// /0101 10163 20086 39818 40163 57003=
14314 46/// /3402 10236 20132 30080 40142 57002=
14321 46/// /3302 10243 20075 30118 40141 54000=
14323 46/// /2403 10247 20078 30114 40142 52006=
14324 46/// /1008 10110 20033 38428 57004=
14328 46/// /3002 10136 20107 39792 40181 57003=
14330 46/// /2501 10131 20103 39520 40181 57006=
14370 12960 30000 10132 20114 30061 40168 57002 60001 80002=
14382 12970 03401 10156 20139 30054 40170 54001 60001=
14428 46/// /0705 10253 20065 30127 40134 57006=
14431 12980 00703 10240 20068 30039 40136 58005 60001=
14438 46/// /0303 10255 20057 30045 40131 57005=
14442 46/// /3203 10225 20041 39846 40141 57005=
14444 12/84 51202 10261 20097 30106 40131 58002 60001 83032=
14445 12670 70606 10260 20075 39977 40123 57003 60001 86530 333 86695 81399 92312=
14447 46/// /0504 10270 20075 30096 40125 57003=
14452 46/// /0906 10247 20130 39911 40126 57005=
14454 46/// /1102 10253 20108 30067 40124 57004=
14462 46/// /0302 10259 20071 30128 40131=
14472 46/// ///// 10275 20074 30062 40123 52004=
14474 12/80 60703 10261 20088 39942 40123 50001 60001 84076=
14542 12/75 41601 10153 20120 39989 40174 58004 60001 82046 333 82362 84276=
14549 16/// /2002 10128 20107 39777 40184 58001 60001=
14557 16/// /0302 10120 20101 39830 40194 57002 60001 90005=
14648 12770 63604 10256 20130 30025 40139 58001 60001 82530 333 82650 84361=
14654 12/68 31103 10145 20086 39447 40172 58001 60001 83030 333 83357=
15000 02/// /3004 10149 20149 39901 40211 57003 60001 333 55089 60007 91006 90760 91106=
15004 42/// /1601 10131 20119 39878 40209 50006 333 91003 90760 91103=
15007 22414 13007 33407 14007 44392 12505 55373 18008 66366 18509 77348 1750=
15007 02/// /3103 10157 20129 39750 40211 50001 60001 333 60007 91005 90760 91105=
15009 20253 53370 05503 15432 64963 20507 10675 69163 10008 88124 71159 1800=
15010 02960 10502 10157 20105 30035 40184 51006 60001 80001 333 55110 22526 55300 20000 60007 91002 90760 91103=
15014 02970 00303 10170 20110 39963 40186 50004 60001 333 55119 22748 55300 20000 60007 91005 90760 91105=
15015 02998 02201 10125 20098 39613 42827 50004 60001 333 55300 0//// 20000 3//// 55109 0//// 22498 3//// 60007 91002 91102=
15020 02997 23003 10165 20148 30003 40196 57002 60001 80001 333 4/000 55300 0//// 20000 3//// 55085 0//// 22299 3//// 60007 91004 91105=
15023 06/// /3004 10154 20129 39770 40187 58002 60001 333 55090 22323 55300 20000 60007=
15025 04/20 /3006 10184 20165 30053 40185 57003 60001 333 60007=
15033 02960 02102 10072 20025 38258 48548 54001 60001 333 55021 21079 55300 20000 60007 91006 90760 91106=
15042 06/// /0403 10163 20103 30028 40177 50003 60001 333 55111 22565 55300 20000 60007=
15044 06/// /1701 10142 20102 39992 40185 51007 60001 333 55078 22063 55300 20000 60007 91002 90760 91102=
15047 02970 01501 10107 20103 39767 40205 50005 60001 333 55096 22202 55300 20000 60007 91001 90760 91102=
15056 55769 13837 66766 13436 77763 13239 88760 13457 99759 13256 11756 1325=
15056 02960 03207 10171 20143 39847 40189 57004 60001 333 55082 21808 55300 20000 60007 91010 90760 91110=
15063 02/60 43201 10179 20112 39834 40182 51005 60001 84070 333 55121 22636 55300 20000 60007 91002 90760 91102=
15069 02/// /0601 10088 20087 39152 42836 54001 60001 333 60007 91002 90760 91102=
15073 02/// /3202 10167 20129 39743 40200 58002 60001 333 60007 91004 90760 91105=
15080 04/20 20302 10191 20104 30010 40172 50001 60001 82030 333 55086 22233 55300 20000 60007 91003 90760 91106=
15083 02/// /3202 10153 20120 39910 40188 50007 60001 333 55300 20000 60007 91003 90760 91103=
15085 02960 00502 10162 20112 39756 40189 50004 60001 333 55090 22085 55300 20000 60007 91004 90760 91104=
15088 01970 03303 10055 20055 38023 48548 54001 60001 72841 333 55024 21161 55300 20000 60007 91004 90760 91108=
15090 02597 82802 10186 20158 30092 40182 57003 60001 885// 333 4/000 55300 =
15090 02597 82802 10186 20158 30092 40182 57003 60001 885// 333 4/000 55300 10125 20000 30000 55100 01067 22279 30898 60007 91004 91104=
15094 06/// /3601 10157 20142 39722 40190 58006 60001 333 55049 21654 55300 20000 60007=
15095 06/// /1101 10158 20123 39786 40180 50001 60001 333 55076 21849 55300 20000 60007=
15099 02/// /1700 10158 39542 50005 60001 333 60007 90760 91103=
15107 02960 01800 10093 20093 39415 42834 50003 60001 333 55105 60007 91001 90760 91102=
15108 01/91 90804 10064 20062 38145 48547 58003 60001 74542 333 4/000 55300 =
15108 01/91 90804 10064 20062 38145 48547 58003 60001 74542 333 4/000 55300 0//// 20002 3//// 55032 0//// 21141 3//// 60007 91006 91108=
15109 04/20 /2803 10158 20120 39771 40197 50001 60001 333 55102 22450 55300 20000 60007=
15111 02/// /3003 10158 20135 39922 40180 58002 60001 333 60007 91006 90760 91106=
15113 06/// /2703 10171 20144 30018 40178 57002 60001 333 55088 22111 55300 20000 60007=
15117 06/// /0503 10166 20123 39975 40170 50003 60001 333 55097 22360 55300 20000 60007=
15118 02/60 31700 10087 20087 38938 48524 50001 60001 83030 333 55062 60007 91000 90760 91101=
15119 02284 31106 10086 20070 38199 48537 50003 60001 82540 333 55054 60007 91012=
15120 02997 02001 10143 20117 39708 40194 50008 60001 333 55300 10191 20000 30000 55103 01166 22511 30538 60007 91001 91101=
15123 02/// /0401 10168 20115 39726 40196 50006 60001 333 55108 22152 55300 20000 60007 91002 90760 91102=
15124 06/// /2603 10171 20107 39667 40193 51005 60001 333 60007 91004 90760 91110=
15127 02960 02902 10086 20076 39340 42831 50003 60001 333 55059 21499 55300 20000 60007 91003 90760 91103=
15136 02/70 50302 10163 20104 30051 40167 50003 60001 81032 333 55097 60007 91003 90760 91103=
15138 02/70 71003 10192 20095 39496 42812 50001 60001 87070 333 55084 22154 55300 20000 60007 91005 90760 91106=
15143 06/// /0501 10150 20114 39692 40196 50007 60001 333 55077 21911 55300 20000 60007=
15145 02960 00502 10146 20121 39828 40198 50006 60001 333 55102 22317 55300 20000 60007 91003 90760 91104=
15148 02960 00503 10102 20087 38756 48531 50002 60001 333 55086 22278 55300 20000 60007 91005 90760 91106=
15150 02997 03202 10182 20116 39978 40185 50000 60001 333 4/000 55300 0//// =
15150 02997 03202 10182 20116 39978 40185 50000 60001 333 4/000 55300 0//// 20000 3//// 55091 0//// 22184 3//// 60007 91005 91105=
15154 02560 33103 10175 20148 30031 40170 57003 60001 83500 333 55085 22113 55300 20000 60007 91005 90760 91105=
15160 02/// /1603 10154 20129 39842 40172 50004 60001 333 60007 91004 90760 91104=
15162 02/// /3000 10125 20120 39484 42822 51006 60001 333 60007 91001 90760 91101=
15163 04/67 /1501 10106 20083 38693 48548 54001 60001 333 55046 21993 55300 20000 60007=
15165 02984 01203 10174 20120 39578 42821 50005 60001 333 55111 60007 91005 90760 91105=
15168 06/// /0401 10121 20113 39582 42819 50003 60001 333 60007 91002 90760 91102=
15170 05998 03202 10069 20069 39432 42823 52002 60001 7000/ 333 55300 0//// =
15170 05998 03202 10069 20069 39432 42823 52002 60001 7000/ 333 55300 0//// 20000 3//// 55051 0//// 21682 3//// 60007 91002 91103=
15179 06/// /1005 10203 20099 39619 40165 50000 60001 333 55092 21996 55300 20000 60007=
15182 02/// /1001 10169 20152 39957 40168 50003 60001 333 55108 22599 55300 20000 60007 91002 90760 91102=
15184 02960 00904 10138 20091 38855 48541 51003 60001 333 55084 60007 91008 90760 91109=
15189 06/// /0901 10120 20120 39810 40191 50006 60001 333 60007 91002 90760 91102=
15194 02/// /2703 10153 20125 39901 40190 50002 60001 333 60007 91005 90760 91106=
15197 02/// /3503 10184 20140 39969 40174 57002 60001 333 55098 22333 55300 20025 60007 91005 90760 91107=
15199 02/// /3403 10169 20101 30047 40149 50001 60001 333 55119 60007 91004 90760 91104=
15200 02998 50302 10169 20096 30025 40166 50003 60001 85030 333 4/000 55300 0//// 20000 3//// 55097 0//// 22305 3//// 60007 91002 91103=
15204 06/// /0000 10135 20130 39989 40178 51004 60001 333 55080 21732 55300 20000 60007 91001 90760 91101=
15206 06/// /0902 10146 20134 39858 40184 50005 60001 333 55077 21735 55300 20000 60007=
15208 06/// /0201 10166 20116 39891 40183 51007 60001 333 55095 22489 55300 20000 60007=
15209 06/// /0301 10145 20134 39788 40190 50006 60001 333 55100 22120 55300 20000 60007 91003 90760 91104=
15215 02/// /3001 10109 20089 39603 42822 50005 60001 333 55050 21618 55300 20000 60007 91001 90760 91101=
15217 02/// /3303 10120 20093 39533 42822 50002 60001 333 60007 91004 90760 91104=
15219 02/// /2905 10176 20126 30043 40165 50000 60001 333 55102 60007 91007 90760 91108=
15230 02997 02101 10173 20123 39896 40181 51008 60001 333 4/000 55300 10168 20000 30000 55109 01289 22419 30729 60007 91003 91103=
15231 02960 01801 10137 20122 39866 40191 51007 60001 333 55069 21553 55300 20000 60007 91002 90760 91102=
15235 02/// /1002 10136 20136 39688 40198 50002 60001 333 55066 60007 91003 90760 91103=
15238 06/// /0000 10110 20105 39586 42822 50005 60001 333 55050 21626 55300 20000 60007=
15241 44908 13833 55887 14040 66879 14057 77873 14262 88870 14262 99854 1366=
15245 06/// /3502 10174 20091 30068 40165 54001 60001 333 55105 22386 55300 20000 60007=
15247 04/60 10601 10185 20121 30056 40159 52002 60001 81030 333 55113 01096 22605 30485 55300 10190 20000 30000 60007 91002 90760 91104=
15254 02960 01601 10102 20089 38584 48536 50000 60001 333 55068 60007 91004 90760 91104=
15260 05998 03201 10148 20118 39657 40186 50004 60001 7000/ 333 55300 0//// 20000 3//// 55089 0//// 21994 3//// 60007 91002 91102=
15261 02/// /0201 10084 20081 39395 42837 50002 60001 333 55061 21783 55300 20000 60007 91001 90760 91101=
15262 30503 70129 01036 27002 50577 13576 29502 40742 27357 29010 30943 4274=
15262 02160 70306 10077 20076 38256 48537 58003 60001 87600 333 55064 21811 55300 20000 60007 91009 90760 91110=
15264 02960 03203 10207 20128 30106 40175 50000 60001 333 55119 22587 55300 20000 60007 91006 90760 91107=
15265 02/// /3106 10195 20135 30094 40166 50001 60001 333 55103 22091 55300 20000 60007 91009 90760 91110=
15270 02/// /1303 10163 20138 30022 40125 50004 60001 333 55121 60007 91004 90760 91104=
15277 06/// /1803 10151 20120 39582 42817 50003 60001 333 55067 60007 91006 90760 91106=
15279 02960 01405 10080 20061 37984 48525 50000 60001 333 60007 91007 90760 91108=
15280 01093 42901 10049 20024 37566 47136 50000 60001 74141 84500 333 55300 =
15280 01093 42901 10049 20024 37566 47136 50000 60001 74141 84500 333 55300 0//// 20000 3//// 55043 0//// 21516 3//// 60007=
15284 02970 00405 10101 20065 38396 48531 58003 60001 333 55081 60007 91008 90760 91110=
15285 02/// /3606 10149 20108 39209 42814 57002 60001 333 55099 22148 55300 20000 60007 91008 90760 91113=
15289 02/// /3302 10161 20096 30063 40163 52002 60001 333 55093 21951 55300 20000 60007 91003 90760 91103=
15292 02998 01302 10177 20133 39886 40172 51004 60001 333 55300 0//// 20000 3//// 55091 0//// 22418 3//// 60007 91004 91104=
15296 04/69 /2501 10123 20117 39490 42823 52006 60001 333 55078 22306 55300 20000 60007=
15297 06/// /3202 10088 20066 38702 50002 60001 333 55038 21296 55300 20000 60007 90760 91105=
15300 02960 01902 10124 20108 39570 42820 50004 60001 333 55059 21883 55300 20000 60007 91003 90760 91104=
15301 02/70 10201 10107 20084 38671 48552 50001 60001 81040 333 55083 22319 55300 20000 60007 91002 90760 91104=
15302 02/// /1401 10089 20089 38964 48525 50000 60001 333 55031 21270 55300 20000 60007 91001 90760 91101=
15307 04/70 /3403 10206 20121 39982 40162 58002 60001 333 55114 22592 55300 20000 60007=
15310 02998 03102 10192 20140 30074 40158 54001 60001 333 4/000 55300 10177 =
15310 02998 03102 10192 20140 30074 40158 54001 60001 333 4/000 55300 10177 20000 30000 55092 01200 22322 30548 60007 91004 91105=
15314 02970 01401 10162 20123 39838 40169 52003 60001 333 55076 21990 55300 20000 60007 91002 90760 91102=
15315 02984 01403 10118 20095 38612 48543 54001 60001 333 55075 60007 91003 90760 91104=
15316 06/// /0802 10113 20067 38575 48531 52002 60001 333 55018 21048 55300 20000 60007=
15317 02270 21204 10072 20054 37870 48542 52002 60001 82300 333 55049 21581 55300 20000 60007 91005 90760 91105=
15319 06/// /3001 10118 20094 39536 50005 60001 333 55066 21546 55300 20000 60007 90760 91101=
15320 02/// /2000 10111 20071 38487 48536 54001 60001 333 60007 91001 90760 91102=
15324 04/70 /1201 10144 20114 39400 42818 50002 60001 333 55065 21951 55300 20000 60007=
15325 02984 03403 10110 20079 38521 48532 50001 60001 333 55049 60007 91005 90760 91106=
15328 06/// /0101 10150 20115 39834 40179 50001 60001 333 55058 21773 55300 20000 60007=
15333 06/// /3402 10194 20136 30138 40157 50000 60001 333 55085 22097 55300 20000 60007=
15335 02997 03103 10211 20170 30142 40149 50002 60001 333 55300 0//// 20000 =
15335 02997 03103 10211 20170 30142 40149 50002 60001 333 55300 0//// 20000 3//// 55120 0//// 22548 3//// 60007 91005 91106=
15336 04/70 /3203 10201 20171 30137 40139 54001 69921 333 55118 22502 55300 20000 69927=
15337 02/// /3109 10193 20166 39943 40141 54000 60001 333 60007 91011 90760 91112=
15338 02/60 20602 10184 20132 39804 40166 54001 60001 81031 333 55105 60007 91004 90760 91104=
15340 02/60 20301 10161 20144 39935 40179 52004 60001 82030 333 55057 21985 55300 20000 60007 91002 90760 91102=
15341 04/67 /2201 10140 20135 39873 40173 52003 60001 333 55030 21407 55300 20000 60007=
15344 02/60 13202 10159 20120 39564 42815 50001 60001 81040 333 55039 21451 55300 20000 60007 91004 90760 91104=
15345 06/// /0602 10168 20116 39543 42815 50003 60001 333 55063 21795 55300 20000 60007=
15346 02997 13402 10162 20133 39896 40178 50003 60001 81040 333 4/000 55300 0//// 20000 3//// 55049 0//// 21871 3//// 60007 91003 91105=
15347 02560 40202 10152 20125 39651 40179 50002 60001 82340 333 55046 21462 55300 20000 60007 91003 90760 91104=
15349 02/// /3201 10140 20117 39638 40182 50002 60001 333 55068 21731 55300 20000 60007 91003 90760 91103=
15350 02997 03302 10196 20122 30055 40171 58002 60001 333 4/000 55300 0//// =
15350 02997 03302 10196 20122 30055 40171 58002 60001 333 4/000 55300 0//// 20000 3//// 55108 0//// 22450 3//// 60007 91004 91105=
15356 55417 15157 66415 15358 77413 15361 88412 15561 99409 15758 11404 1655=
15360 02998 03308 10208 20180 30115 40132 54001 60001 222// 0//// 2//// 333 =
15360 02998 03308 10208 20180 30115 40132 54001 60001 222// 0//// 2//// 333 55300 ///// 20000 3//// 55062 ///// 21932 3//// 60007 91009 91109 92438=
15364 02/// /3400 10135 20129 39881 40188 52005 60001 333 60007 91000 90760 91101=
15366 02/// /0502 10171 20142 39947 40174 52003 60001 333 60007 91005 90760 91106=
15369 02/// /0401 10138 20134 39864 40181 51003 60001 333 55052 21502 55300 20000 60007 91002 90760 91102=
15373 02/60 33502 10172 20140 39798 40170 50004 60001 83040 333 55086 22095 55300 20000 60007 91004 90760 91104=
15375 02960 03203 10164 20129 39826 40177 50004 60001 333 55076 21913 55300 20000 60007 91004 90760 91104=
15377 05960 03401 10167 20128 39958 40169 50000 60001 333 55047 21607 55300 20000 60007 91002 90760 91103=
15387 49582 28525 10652 50783 28523 88213 55359 31519 77999 31313 42408 8230=
15387 06/// /3203 10192 20170 30130 40134 54000 69931 333 55085 22057 55300 20000 69937=
15388 02/// /0602 10212 20137 30064 40162 52003 60001 333 60007 91003 90760 91105=
15395 02/// /3003 10179 20146 39846 40176 51004 60001 333 60007 91004 90760 91105=
15402 55379 32071 10657 59177 33537 88203 54563 34092 88126 58778 32557 7727=
15402 02/// /3602 10202 20120 30090 40162 50001 60001 333 55060 21546 55300 20000 60007 91004 90760 91105=
15405 57975 27554 10659 62374 27029 88154 58173 27565 77173 26583 41135 3131=
15405 06/// /3504 10189 20125 30105 40166 50001 60001 333 55107 22476 55300 20000 60007=
15406 53179 30033 10665 55981 29516 88128 56179 31030 77199 29559 41417 3131=
15406 02/// /3404 10191 20137 30106 40152 50001 60001 333 60007 91006 90760 91107=
15408 52181 17524 10666 55980 13509 88258 46769 18548 88131 55779 20518 7799=
15408 02/// /3204 10193 20159 39891 40149 58004 60001 333 60007 91007 90760 91108=
15409 02/// /3509 10214 20148 30095 40142 50001 60001 333 55106 55300 60007 91011 90760 91111=
15410 02997 00500 10183 20155 30079 40172 50005 60001 333 4/000 55300 0//// 20000 3//// 55064 0//// 21902 3//// 60007 91001 91102=
15412 06/// /0303 10174 20127 39805 40175 51003 60001 333 55061 22031 55300 20000 60007 90760 91105=
15416 02/// /3401 10184 20159 39926 40173 52007 60001 333 60007 91002 90760 91105=
15419 59773 21046 10670 62774 12507 88127 63168 22027 77234 21070 40610 3131=
15419 02960 03401 10163 20136 39987 40177 50002 60001 333 55070 60007 91002 90760 91103=
15420 02997 00101 10152 20132 30056 40165 50000 60001 333 55300 0//// 20000 =
15420 02997 00101 10152 20132 30056 40165 50000 60001 333 55300 0//// 20000 3//// 55052 0//// 21466 3//// 60007 91002 91102=
15421 69741 25047 10664 69367 22005 88148 70343 24541 77999 31313 42408 8230=
15421 02960 03601 10191 20112 30068 40176 50001 60001 333 55052 60007 91002 90760 91103=
15422 68148 01015 10659 77758 09513 88999 77999=
15422 02960 00301 10209 20118 30067 40165 50000 60001 333 55047 21669 55300 20000 60007 91003 90760 91105=
15423 65757 26014 10663 72964 09015 88106 75359 09010 77999 31313 44108 8230=
15424 67361 18011 10664 70966 15512 88132 73756 22510 77999 31313 42408 8225=
15425 66157 02013 10667 68765 03009 88116 72359 04028 77999 31313 45208 8231=
15425 04/20 /3404 10194 20130 30098 40160 50001 60001 333 55117 22583 55300 20000 60007=
15428 02960 03507 10216 20174 30133 40137 50001 60001 333 55118 00603 22398 32347 55300 10180 20000 60007 91010 90760 91110=
15429 65961 05003 10670 69361 04506 88117 72559 10511 77999 31313 45408 8230=
15434 02/60 30401 10162 20162 39969 40175 52006 60001 83070 333 55056 21739 55300 20000 60007 91003 90760 91103=
15444 02/// /3504 10210 20136 30086 40154 58001 60001 333 55112 60007 91008 90760 91108=
15445 02/// /3303 10191 20141 30061 40165 50000 60001 333 55113 60007 91005 90760 91106=
15450 06/// /0403 10178 20148 39940 40168 52004 60001 333 55300 10219 20000 30000 55075 00875 22029 31554 60007=
15455 06/// /0601 10173 20116 30040 40168 50001 60001 333 55057 21850 55300 20000 60007=
15460 06/// /3402 10185 20120 30134 40158 50000 60001 333 55300 0//// 20000 =
15460 06/// /3402 10185 20120 30134 40158 50000 60001 333 55300 0//// 20000 3//// 55083 0//// 22221 3//// 60007=
15462 02/// /0104 10195 20143 30067 40152 54001 60001 333 60007 91005 90760 91107=
15465 06/// /0502 10198 20152 30095 40164 52006 60001 333 55089 22440 55300 20000 60007=
15469 02/// /3402 10188 20162 30040 40167 52005 60001 333 60007 91003 90760 91103=
15470 02597 70602 10208 20142 30044 40166 50003 60001 82370 333 4/000 55300 =
15470 02597 70602 10208 20142 30044 40166 50003 60001 82370 333 4/000 55300 0//// 20000 3//// 55061 0//// 21835 3//// 60007 91002 91102=
15475 06/// /0000 10154 20118 30141 40161 50000 60001 333 55052 21721 55300 20000 60007=
15479 02/// /0501 10192 20123 39966 40153 54001 60001 333 60007 91002 90760 91102=
15480 05997 03202 10223 20148 30126 40143 50001 60001 7000/ 222// 0//// 2///=
15480 05997 03202 10223 20148 30126 40143 50001 60001 7000/ 222// 0//// 2//// 333 4/000 55300 10192 20000 30000 55111 01112 22538 32097 60007 91005 91106=
15482 02/60 13401 10195 20163 30092 40166 52007 60001 81040 333 55071 60007 91003 90760 91104=
15489 02/60 20704 10198 20111 30075 40166 50004 60001 82040 333 55081 21977 55300 20000 60007 91004 90760 91105=
15490 02/60 20901 10192 20129 30127 40166 50005 60001 82040 333 55062 21931 55300 20000 60007 91002 90760 91102=
15491 02960 03501 10178 20113 30136 40165 50004 60001 333 55046 21732 55300 20000 60007 91001 90760 91101=
15494 02960 00401 10159 20143 30119 40163 50006 60001 333 55092 60007 91001 90760 91102=
15498 02/// /0801 10173 20121 30121 40163 50005 60001 333 60007 91002 90760 91102=
15499 02/// /3002 10211 20138 30131 40140 58001 60001 333 55115 60007 91005 90760 91105=
15502 12970 23401 10162 20155 30110 40148 51002 60001 81031 333 10236 20162 555 596//=
15525 12970 22001 10163 20133 39893 40150 52005 60001 80001 333 10247 20162 555 582//=
15549 12970 00502 10181 20114 39756 40156 52003 60001 333 10221 20181 565//=
15549 12970 00502 10181 20114 39756 40156 52003 60001 333 10221 20181 555 565//=
15552 12970 03401 10227 20136 30090 40136 54000 60001 222// 00248 10302 333 =
15552 12970 03401 10227 20136 30090 40136 54000 60001 222// 00248 10302 333 10261 20225 555 556// 92035 92438=
15556 77407 15750 88406 15940 99404 16156 11403 16542 22402 16750 33398 1732=
15561 34512 30973 30760 01508 25100 40943 05501 20247 53733 01003 15426 6853=
15600 11486 33604 10119 20092 38346 48539 58002 60001 70111 82431 333 10125 20114 555 583//=
15614 12668 51601 10181 20142 39479 40155 52003 60001 83130 333 10229 20175 555 578//=
15615 11/00 91602 10041 20041 37183 47136 58001 60001 74142 333 10049 20038 555 500//=
15640 12970 00000 10214 20135 39853 40151 52003 60001 333 10250 20214 561//=
15640 12970 00000 10214 20135 39853 40151 52003 60001 333 10250 20214 555 561//=
15655 12968 00000 10219 20157 30110 40141 52002 60001 222// 00262 10401 333 =
15655 12968 00000 10219 20157 30110 40141 52002 60001 222// 00262 10401 333 10251 20216 555 568// 92033 92437=
15712 12678 62302 10205 20157 39904 40143 51003 60001 84501 333 10252 20205 555 574//=
15730 12970 83605 10221 20119 39770 40147 51001 60001 83037 333 10261 20220 =
15730 12970 83605 10221 20119 39770 40147 51001 60001 83037 333 10261 20220 555 553//=
16111 36/// /3504 10172 20148 38688 48541 57003 333 55080 25357 555 20146 3//16 43504 51101 63408 1/134 21111 31111 411// 51111 61110 7////=
16121 46/// ///// 1//// 2//// 30022 4//// 57004 555 3//// 1/137 21111 31111 411// 5//1/ 6//// 7////=
16132 46/// ///// 10222 20106 30103 40160 52003 333 55000 20000 555 20236 3//69 1/132 21111 31111 411// 5//11 61111 7////=
16133 46/// ///// 10222 20068 30151 40160 52001 333 55000 555 10000 20233 3//// 4//// 5//// 1/136 21111 31111 411// 50011 611/1 7////=
16171 36/// ///// 10236 20150 30105 40155 52003 333 55000 2//// 555 20238 3//16 4//// 5//// 1/136 21111 31111 411// 50011 61110 7////=
16217 15/// /0002 10204 20111 30054 40144 50005 60001 333 10345 20163 55100 55300 20000 30410 59023 70000=
16231 36/// /2203 10214 20167 39931 40140 57006 333 55103 22459 555 20222 3//// 42205 52703 62011 1/130 21111 31110 411// 51111 61111 7////=
16266 36/// /1504 10249 20176 30124 40129 57007 333 55000 22047 555 20243 3//// 41503 51601 61308 1/124 21111 31111 411// 51111 61101 7//// 3/000=
16271 16/// /1703 10261 20177 30100 40135 5//// 6///1 333 55/// 2//// 7//// 555 20256 3//11 41703 51701 61706 7///1 8///2 1/121 21111 31111 411// 51111 61101 7+///=
16288 36/// /0903 10226 20170 30061 40137 57018 333 55180 21671 555 20228 3//81 40902 50801 60913 1/083 21111 31111 411// 51111 61111 7//// 3/000=
16314 36/// /0112 10194 20182 39586 40156 57003 333 55062 21392 70554 555 20195 3//81 40111 50304 60317 1/123 21111 31111 411// 51111 61111 7//// 3/038=
16364 36/// /1105 10176 20084 39022 48501 57012 333 55073 21743 555 20155 3//10 41305 51101 61308 1/129 21111 31110 411// 51111 61111 7//// 3/000=
16416 36/// /1904 1//// 2//// 30035 4//// 57010 333 4//// 55000 2//// 555 2//// 3//// 41905 53602 61908 1/132 21110 31110 411// 51110 60000 70/// 3/000=
16464 36/// /2202 10227 20190 30127 40128 57008 333 55000 22093 555 20237 3//// 42202 50100 62304 1/133 21111 31111 411// 51111 61101 7//// 3/000=
16532 15/// /2806 10171 20122 38699 48562 52003 60001 333 10225 20168 55078 55300 20000 30410 59010 70000=
16599 05972 /1003 10251 20221 30022 40126 57007 60001 60001 333 10291 20246 30023 60007 91105 91204 91304 91508 555 10291 20246 30228 40000 50000 60036 70050 80000 91105 00023=
16741 12960 00208 10262 20113 30028 40115 57004 60001 333 90730 91112=
17031 12561 43206 10236 20204 30106 40112 50000 60001 82130 333 82830 84358 =
17031 12561 43206 10236 20204 30106 40112 50000 60001 82130 333 82830 84358 91117=
17033 12970 01901 10239 20183 30109 40114 53002 60001 333 90760 91107=
17058 12960 03507 10224 20193 30031 40146 58002 60001 333 91113=
17063 12560 30706 10204 20201 30017 40131 57005 60001 83100 333 83830 90760 91113=
17091 12670 43504 10139 20113 38391 48489 53001 60001 81130 333 81840 83360 91114=
17095 12970 00502 10187 20106 38124 48465 53007 60001 333 90760 91106=
17118 12960 00602 10165 20163 39860 40126 55002 60001 333 90760 91109=
17127 12960 00104 10157 20110 39181 40103 53001 60001 333 90760 91119=
17131 12960 02803 10182 20107 39201 40096 53002 60001 333 90760 91115=
17135 12970 00901 10211 20114 39265 40083 52004 60001 333 91116=
17135 12970 00901 10211 20114 39265 40083 52004 60001 333 90760 91116=
17155 12970 00000 10164 20138 39050 40110 56001 60001 333 91106=
17175 12965 00605 10248 20168 30100 40104 55000 60001 333 91121 92437=
17175 12965 00605 10248 20168 30100 40104 55000 60001 333 90760 91121=
17185 12970 01010 10181 20108 39138 40089 52001 60001 333 91113=
17197 12960 01905 10266 20111 39034 40007 53005 60001 333 91110=
17232 12970 01403 10263 20200 30054 40082 50000 60001 333 90760 91107=
17241 12960 00105 10186 20144 39131 40076 51001 60001 333 90760 91114=
17271 12960 02709 10256 20179 39123 49991 57005 60001 333 90760 91117=
17291 12960 00000 10227 20169 30053 40065 50000 60001 333 90760 91114=
17296 12970 00601 10273 20221 30051 40054 50000 60001 333 90760 91104=
17302 12570 10000 10278 20129 30000 40053 57005 60001 81100 333 81830 90760 91102=
17310 12670 62201 10296 20243 30042 40049 55000 60001 83260 333 83835 86360 =
17310 12670 62201 10296 20243 30042 40049 55000 60001 83260 333 83835 86360 91107 92428=
17355 12/70 40000 10263 20246 39942 40053 55005 60001 84030 333 84360 90760 91114=
17501 12960 01906 10265 20066 30045 40063 60001=
17505 12960 02808 10257 20214 39966 40064 60001=
17510 12960 00000 10266 20069 30060 40070 52010 60001=
17515 12960 01805 10235 20190 39913 40062 60001=
17521 12960 02209 10226 20169 39926 40056 55001 60001=
17530 12960 02304 10242 20186 30014 40062 60001=
17535 12960 01504 10240 20198 30020 40057 60001=
17550 12960 01803 10251 20200 39922 40081 60001=



SMUS10 KWBC 120000
AAXX 12004
16008 12960 00302 10136 20089 38580 48540 51011 60001 333 59022 70000=
16020 16/// /1603 10222 20139 39883 40170 52004 60001=
16022 11580 50000 10102 20069 37921 48540 58004 60011 70296 82509 333 82630=
16045 12/65 63503 10230 20135 30100 40162 52006 60001 86070 333 59031 70000 82357 84459=
16052 15/// /0115 10024 21017 36724 47162 58009 60001 333 10088 20008 59021 70000=
16054 46/// ///// 1//// 2//// 39538 4//// 52005 333 55000 555 2//// 3//// 4//// 5//// 1/138 21110 31111 411// 5001/ 6000/ 7////=
16059 12970 00001 10234 20154 39808 40165 57001 60001=
16066 12/85 60704 10237 20147 39885 40164 57001 60001 86077 333 84358 84861=
16076 16/// /1506 10238 20126 39887 40171 52003 60001=
16080 16/// /0807 10247 20121 30029 40158 52002 60001=
16088 12865 40707 10236 20178 30050 40163 51010 60001 84070 333 83358=
16090 16/// /3005 10197 20177 30073 40161 52004 60041=
16098 42981 70205 10248 20168 30106 40155 51001 6///1 86038 333 86360=
16099 16/// /3402 10243 20119 30132 40153 54000 60001=
16105 12/80 61304 10247 20144 30150 40152 57001 60001 86070 333 86364=
16108 16/// /1103 10231 20098 30144 40159 52001 60001=
16110 16/// /3600 10241 20090 30151 40155 58002 60001 333 55300 20000=
16120 12980 00002 10261 20150 30136 40141 57004 60001=
16129 36/// ///// 1//// 2//// 3//// 4//// 5//// 333 55124 2//// 555 2//// 3//// 4//// 5//// 61908 1/134 21111 31110 411// 50000 60000 7//// 3/039=
16134 16/// /0421 10091 20003 37882 48545 55002 60001 333 55300 20000=
16140 16/// /2106 10221 20088 30116 40161 52002 60001=
16146 15/// /0002 10229 20132 30152 40156 53006 60001 333 10330 20229 55116 55300 20000 30410 59030 70000=
16148 12970 42604 10190 20155 30141 40153 52002 60001 80001 333 59029 70000 84070=
16149 16/// /0002 10208 20137 30134 40149 57005 60001=
16158 12962 01409 10240 20158 30141 40148 51005 60001 333 59017 70000=
16168 16/// /9903 10210 20078 39426 42793 58004 60001 333 55300 20000=
16170 12965 02205 10223 20099 30100 40152 52002 60001=
16172 16/// /9901 10164 20093 39864 40156 58003 60001 333 55300 20000=
16179 12970 00204 10182 20085 39490 42792 54000 60001 333 59028 70000=
16191 16/// /1703 10215 20131 30122 40141 57007 60001=
16206 12982 00111 10230 20129 30134 40142 52006 60001 333 59015 70000=
16214 15/// ///// 10242 20120 30128 40133 50002 60001 333 10307 20228 55115 55300 20011 36144 59018 70000=
16219 16/// /1206 10146 20099 38171 48545 55001 60001 333 55300 20000=
16224 16/// /0504 10223 20168 39839 40144 55002 60001 333 55300 20000=
16230 16/// /2308 10218 20163 30125 40142 57005 60001=
16239 16/// /2605 10243 20172 39985 40140 54000 60001=
16242 16/// /1105 10233 20184 30128 40133 52006 60001=
16245 42562 51209 10234 20202 30100 40125 53002 6///1 82131 333 82820 83357=
16253 41765 53505 10218 20182 30122 40134 57010 6///1 70192 85200 333 85650=
16258 16/// /3212 10179 20148 39180 42783 58008 60001 333 55300 20000=
16261 12775 72808 10234 20167 30064 40131 55005 60001 82511 333 10324 20224 55078 55300 20000 30410 59018 70000 82650 84460=
16270 12965 62004 10231 20166 30064 40133 57006 60001 80006 333 86273=
16280 15/// /1706 10239 20175 39915 40127 58010 60001 333 10335 20000 59021 70000 90730 91112=
16289 16/// /0906 10214 20170 30027 40134 57016 60041=
16294 11497 80000 10242 20177 39948 40133 58002 60141 70292 86810 333 83810 83620 555 0////=
16310 41598 63604 10238 20189 39926 40139 57005 6///1 70392 83530 333 83630 84357 555 0////=
16312 12/60 43605 10210 20168 39720 40122 54004 60001 84010 333 59014 70000 84460=
16320 16/// /3508 10260 20203 30107 40124 57008 60001=
16332 12/60 70106 10250 20231 30071 40132 54000 60001 83016 333 59004 70000 83462 86270=
16344 16/// /9902 10153 20057 38345 48521 55008 60001 333 55300 20000=
16362 12965 00706 10212 20173 30113 40130 57007 60001=
16405 16/// /1804 10258 20191 30104 40128 57007 60001=
16415 36/// /2304 1//// 2//// 30073 4//// 57010 333 55000 2//// 555 20253 3//// 42304 52501 62306 1/041 21110 31110 411// 51110 61100 7//// 3/000=
16420 12998 43402 10260 20233 30060 40122 58005 60001 80008 555 0////=
16422 16/// /0504 10249 20151 30095 40130 57009 60001=
16429 12864 30000 10234 20194 30122 40132 54000 60001 83000 333 83358=
16459 12560 22805 10230 20230 30099 40133 54000 60001 82000 333 82830=
16460 12960 02205 10217 20194 30114 40128 57009 60001=
16490 16/// /0406 10276 20224 30107 40132 57001 60001=
16520 16/// /1902 10218 20180 30118 40151 52001 60001=
16522 12965 00000 10246 20237 39914 40147 54003 60001 333 59005 70000=
16531 16/// /2406 10239 20185 30130 40144 57002 60001=
16546 12965 00402 10200 20187 30120 40148 57000 60001 333 59003 70320=
16550 12970 03010 10236 20183 39962 40135 54000 60001 333 59016 70000=
16560 16/// /3605 10203 20186 30146 40150 57003 60001=
16597 02565 21003 10252 20221 30022 40126 58007 60001 82800 333 60007 82825 91105 91204=
16606 26/// /0000 10202 20157 30110 40146 54000 333 60005 90730 91103=
16613 17/// /0000 10129 20129 39452 40176 54000 69911 7//4/ 333 90730 91103=
16614 17/// /9904 10152 20116 39406 40165 57002 69901 7//4/ 333 90730 91109=
16622 11560 69903 10232 20170 30138 40138 52001 69911 70382 82430 333 82630 85358 90730 91109 555 40000 47634 44240 50000 50192 70000 77/// 7O///=
16627 12560 30000 10226 20211 30133 40138 50004 60001 82140 333 90730 91108 =
16627 12560 30000 10226 20211 30133 40138 50004 60001 82140 333 90730 91108 555 40000 47633 44240 50000 50216=
16632 17/// /3404 10184 20131 39446 40157 57002 69901 7//4/ 333 90730 91110=
16641 12560 20000 10240 20200 30107 40110 51001 60001 81230 333 90730 91104 555 40000 47620 44280 50000 50214=
16642 26/// /2501 10151 20151 39597 40150 57006 333 60005 90730 91103=
16648 12660 40000 10230 20183 30051 40132 57003 60001 82450 333 82640 84358 90730 91107=
16650 12/60 20407 10240 20193 30115 40123 54000 60001 82040 333 90730 91114=
16675 36/// /2603 10212 20173 30118 40131 57002 333 90730 91107=
16682 12560 30000 10220 20170 30104 40114 57004 60001 81240 333 81825 83358 90730 91103=
16684 17/// /3607 10235 20210 30103 40125 57001 69901 7//4/ 333 90730 91112 555 60000 65555 60002=
16706 12960 03614 10248 20168 30078 40085 56004 60001 333 90730 91123 40000 =
16706 12960 03614 10248 20168 30078 40085 56004 60001 333 90730 91123=
16715 26/// /0409 10246 20121 39862 40119 57004 333 60005 90730 91112=
16716 36/// /9902 10261 20109 30068 40116 57003 333 90730 91111=
16718 12960 03505 10248 20127 30091 40120 57003 60001 333 90730 91110=
16723 12560 20308 10266 20181 30059 40073 50000 60001 82400 333 90730 91115 =
16723 12560 20308 10266 20181 30059 40073 50000 60001 82400 333 90730 91115 555 40000 47585 44280 50000 50212=
16726 12/60 13404 10198 20132 40116 54000 60001 81030 333 90730 91106=
16732 17/// ///14 10242 20202 30083 40094 57006 6///1 7//// 333 90730 91127 =
16732 17/// ///14 10242 20202 30083 40094 57006 6///1 7//// 333 90730 91127 555 60000 6//// 6////=
16734 36/// /0505 10236 2//// 30056 40115 57004 333 90730 91108=
16738 36/// /3006 10235 20174 39915 40106 57006 333 90730 91111=
16742 12860 13510 10266 20181 39915 40063 58003 60001 81040 333 90730 91117 =
16742 12/60 13510 10266 20181 39915 40063 58003 60001 81040 333 90730 91117=
16743 36/// /0209 10248 20105 39926 40115 57007 333 90730 91112=
16746 12560 10000 10218 20190 39939 40113 57001 60001 81100 333 90730 91103 555 40000 47493 44265 50000 50200=
16749 12560 22406 10278 20192 30040 40054 54000 60001 81130 333 90730 91109 =
16749 12560 22406 10278 20192 30040 40054 54000 60001 81130 333 90730 91109 555 40000 47566 44240 50000 50222=
16754 12560 12807 10236 20175 30060 40107 57004 60001 81100 333 90730 16757 =
16754 12560 12807 10236 20175 30060 40107 57004 60001 81100 333 90730 91112=
16757 26/// /2719 10245 20177 39965 40094 57005 333 60005 90730 91125=
16760 12560 20406 10224 20157 40113 57004 60001 82100 333 90730 91112=
16760 12560 20406 10224 20157 40113 57004 60001 82100 333 90730 91112=
16765 17/// /2925 10239 20209 30046 40065 57008 69901 74144 333 90730 91135 =
16765 17/// /2925 10239 20209 30046 40065 57008 69901 74144 333 90730 91135=
17022 09020 70207 08246 12512 50592 06132 08506 40763 16162 21008 30973 3194=
17024 77999 31313 42408 82307=
17026 12970 03004 10253 20224 30062 40099 50000 60001 333 91118 92428=
17026 12970 03004 10253 20224 30062 40099 50000 60001 333 91118 92428=
17030 12670 42504 10231 20189 30109 40113 53003 60001 84200 333 84836 90760 91115=
17034 12670 42201 10249 20198 30076 40119 53003 60001 82130 333 82835 84360 =
17034 12670 42201 10249 20198 30076 40119 53003 60001 82130 333 82835 84360 91105 92428=
17038 12670 72205 10259 20187 30064 40109 51003 60001 87200 333 87835 91118 =
17038 12670 72205 10259 20187 30064 40109 51003 60001 87200 333 87835 91118 92428=
17050 12970 03601 10217 20131 30087 40146 50000 60001 333 91104=
17050 12970 03601 10217 20131 30087 40146 50000 60001 333 91104=
17059 12670 31202 10195 20183 30086 40130 56002 60001 83200 333 83835 90760 91105=
17060 12460 23505 10210 20184 30100 40138 58003 60001 82600 333 82717 91112=
17060 12460 23505 10210 20184 30100 40138 58003 60001 82600 333 82717 91112=
17068 11556 40000 10163 20161 30054 40136 58004 60001 71011 84500 333 84627 90760 91105=
17082 12960 02302 10181 20153 39513 40099 52005 60001 333 90760 91121=
17085 12970 03206 10213 20168 39640 40099 52007 60001 333 91117=
17085 12970 03206 10213 20168 39640 40099 52007 60001 333 90760 91117=
17086 12670 21004 10206 20151 39419 40085 53003 60001 82100 333 82835 91120=
17092 12860 42606 10207 20132 38817 48477 52011 60001 84030 333 84357 91121=
17092 12860 42606 10207 20132 38817 48477 52011 60001 84030 333 84357 91121=
17096 12960 00714 10191 20126 38226 48471 53007 60001 333 91119=
17096 12960 00714 10191 20126 38226 48471 53007 60001 333 91119=
17098 12960 00808 10127 20104 38201 48491 52006 60001 333 91125=
17098 12960 00808 10127 20104 38201 48491 52006 60001 333 91125=
17100 12970 02801 10245 20132 39129 40043 52010 60001 333 91108=
17100 12970 02801 10245 20132 39129 40043 52010 60001 333 90760 91108=
17115 12960 00408 10224 20224 30084 40132 57004 60001 333 91116=
17115 12960 00408 10224 20224 30084 40132 57004 60001 333 91116=
17116 12660 20000 10215 20181 30007 40122 58002 60001 82200 333 82840 91111=
17116 12660 20000 10215 20181 30007 40122 58002 60001 82200 333 82840 91111=
17124 12960 02605 10165 20145 39248 40115 51001 60001 333 91112=
17124 12960 02605 10165 20145 39248 40115 51001 60001 333 91112=
17128 12970 00303 10166 20099 39063 40096 53001 60001 333 91115=
17128 12970 00303 10166 20099 39063 40096 53001 60001 333 91115=
17129 12960 02802 10166 20108 39217 40103 53001 60001 333 90760 91117=
17130 12970 00302 10190 20111 39116 40082 53002 60001 333 90760 91115=
17140 12965 01101 10161 20115 38692 48491 52003 60001 333 91108=
17140 12965 01101 10161 20115 38692 48491 52003 60001 333 91108=
17150 12660 13406 10215 20180 30005 40122 57004 60001 81100 333 81835 91120=
17150 12660 13406 10215 20180 30005 40122 57004 60001 81100 333 81835 90760 91120=
17160 12970 03510 10228 20102 38976 48485 53003 60001 333 91117=
17160 12970 03510 10228 20102 38976 48485 53003 60001 333 91117=
17170 12960 00703 10153 20058 38326 48486 53002 60001 333 91107=
17170 12960 00703 10153 20058 38326 48486 53002 60001 333 91107=
17184 12670 23603 10231 20165 39995 40099 50001 60001 82200 333 82840 91116=
17184 12670 23603 10231 20165 39995 40099 50001 60001 82200 333 82840 91116=
17186 12/70 20703 10258 20167 30025 40105 58002 60001 82030 333 82360 90760 91108=
17190 12970 03201 10175 20126 38973 48501 55000 60001 333 91111=
17190 12970 03201 10175 20126 38973 48501 55000 60001 333 91111=
17193 12970 00000 10194 20099 38735 48496 52003 60001 333 90760 91106=
17195 12970 30404 10187 20105 38932 48486 52004 60001 83030 333 83362 91114=
17195 12970 30404 10187 20105 38932 48486 52004 60001 83030 333 83362 91114=
17200 12960 03107 10284 20095 39107 49997 53004 60001 333 91124=
17200 12960 03107 10284 20095 39107 49997 53004 60001 333 90760 91124=
17202 12970 02605 10250 20072 39050 49994 52008 60001 333 91110=
17202 12970 02605 10250 20072 39050 49994 52008 60001 333 91110=
17203 12970 00000 10218 20079 38813 48496 53005 60001 333 91105=
17203 12970 00000 10218 20079 38813 48496 53005 60001 333 91105=
17218 12960 03503 10251 20160 30085 40091 50001 60001 333 90760 91120=
17219 12965 43414 10260 20165 39948 40082 50000 60001 84030 333 84360 91121=
17219 12965 43414 10260 20165 39948 40082 50000 60001 84030 333 84360 91121=
17220 12670 30409 10268 20176 30060 40092 50000 60001 81130 333 81840 83360 90760 91119=
17234 12970 01401 10254 20169 30006 40069 52002 60001 333 91110=
17234 12970 01401 10254 20169 30006 40069 52002 60001 333 91110=
17237 12970 02802 10254 20139 39612 40080 52009 60001 333 91108=
17237 12970 02802 10254 20139 39612 40080 52009 60001 333 91108=
17240 12970 02701 10198 20142 39000 40068 54000 60001 333 91103=
17240 12970 02701 10198 20142 39000 40068 54000 60001 333 91103=
17244 12970 03412 10214 20103 38962 48492 50004 60001 333 91123=
17244 12970 03412 10214 20103 38962 48492 50004 60001 333 91123=
17260 12960 02706 10258 20180 39252 49999 55004 60001 333 91116=
17260 12960 02706 10258 20180 39252 49999 55004 60001 333 91116=
17280 12960 01405 10250 20137 39273 49990 53003 60001 333 91115=
17280 12960 01405 10250 20137 39273 49990 53003 60001 333 91115=
17290 12670 10000 10268 20212 30031 40061 58001 60001 81100 333 81834 91110 =
17290 12670 10000 10268 20212 30031 40061 58001 60001 81100 333 81834 91110 92408=
17292 12970 33102 10236 20141 39348 40053 56002 60001 83030 333 83360 91105=
17292 12970 33102 10236 20141 39348 40053 56002 60001 83030 333 83360 91105=
17295 12960 00204 10240 20205 30055 40062 50001 60001 333 91107=
17300 12560 13304 10273 20164 39999 40065 57004 60001 81100 333 81830 91112=
17300 12560 13304 10273 20164 39999 40065 57004 60001 81100 333 81830 91112=
17320 12970 00000 10269 20227 30044 40048 51005 60001 333 92428=
17330 17350 12560 41403 10274 20252 39975 40047 56003 60001 84200 333 17370=
17340 12670 10402 10287 20254 30043 40051 50000 60001 81100 333 81835=
17350 12560 41403 10274 20252 39975 40047 56003 60001 84200 333 84830=
17352 12560 31302 10270 20248 30029 40052 57004 60001 83100 333 83830=
17370 12670 52504 10288 20242 30054 40058 56007 60001 85200 333 85835 91112 92438=
17375 17510 12960 00000 10266 20069 30060 40070 52010 60001 333 92437=
17600 12580 10106 10231 20173 30058 40069 57004 60001 81100 333 81820=
17601 12975 02711 10257 20226 30029 40059 57002 60001 92350=
17609 12962 02803 10227 20208 30059 40061 57000 60001=